METAR Data
IDs: Format: Raw Decoded Include TAF

Data at: 0149 UTC 23 Apr 2021

YPPH 230130Z 08011KT CAVOK 19/09 Q1020
YPPH 230100Z 07011KT CAVOK 18/09 Q1020
YPPH 230030Z 08010KT CAVOK 18/09 Q1020
YPPH 230000Z AUTO 08011KT 9999 // NCD 17/08 Q1020
YPPH 222330Z 08011KT CAVOK 17/08 Q1020
YPPH 222300Z 08011KT CAVOK 17/08 Q1020
YPPH 222230Z 07008KT CAVOK 17/08 Q1019
YPPH 222200Z 07009KT CAVOK 17/08 Q1019
YPPH 222130Z 07013KT CAVOK 18/08 Q1019
YPPH 222100Z 06012KT CAVOK 18/08 Q1019
YPPH 222030Z 06012KT CAVOK 18/08 Q1019
YPPH 222000Z AUTO 07014KT 9999 // NCD 18/08 Q1019
YPPH 221930Z 07014KT CAVOK 18/08 Q1019
YPPH 221900Z 07013KT CAVOK 18/08 Q1019
YPPH 221830Z AUTO 08015KT 9999 // NCD 19/08 Q1019
YPPH 221800Z 08014KT CAVOK 19/08 Q1020
YPPH 221730Z 08015KT CAVOK 19/08 Q1020
YPPH 221700Z 09016KT CAVOK 19/08 Q1019
YPPH 221630Z 09017KT CAVOK 19/09 Q1020
YPPH 221600Z 09017KT CAVOK 19/09 Q1020
YPPH 221530Z 09016KT CAVOK 19/09 Q1020
YPPH 221500Z 09017KT CAVOK 20/09 Q1020
YPPH 221430Z 10016KT CAVOK 20/08 Q1020
YPPH 221400Z 09011KT CAVOK 20/08 Q1021
YPPH 221330Z 09010KT CAVOK 20/08 Q1021
YPPH 221300Z 11013KT CAVOK 20/08 Q1021
YPPH 221230Z 11011KT CAVOK 21/09 Q1020
YPPH 221200Z 13009KT CAVOK 21/09 Q1021
YPPH 221130Z 13009KT CAVOK 21/09 Q1021
YPPH 221100Z 14007KT CAVOK 21/09 Q1021
YPPH 221030Z 14005KT CAVOK 20/08 Q1021
YPPH 221000Z 16005KT CAVOK 21/08 Q1020
YPPH 220930Z 14006KT CAVOK 22/08 Q1020
YPPH 220900Z 12008KT CAVOK 23/08 Q1019
YPPH 220830Z 12009KT CAVOK 23/08 Q1019
YPPH 220800Z 11008KT CAVOK 24/08 Q1020
YPPH 220730Z 11010KT CAVOK 24/08 Q1020
YPPH 220700Z 09009KT CAVOK 24/08 Q1020
YPPH 220630Z 10010KT CAVOK 24/08 Q1020
YPPH 220600Z 09011KT CAVOK 24/07 Q1020
YPPH 220530Z 06011KT CAVOK 24/08 Q1021
YPPH 220500Z 06010KT CAVOK 24/08 Q1021
YPPH 220430Z 09011KT CAVOK 25/09 Q1022
YPPH 220400Z 04012KT CAVOK 23/10 Q1022
YPPH 220330Z 07011KT CAVOK 23/09 Q1023
YPPH 220300Z 06013KT CAVOK 22/10 Q1023
YPPH 220230Z 08012KT CAVOK 21/11 Q1024
YPPH 220200Z 08010KT CAVOK 20/10 Q1024
YPPH 220130Z AUTO 07015KT 9999 // NCD 19/11 Q1024
YPPH 220100Z 08012KT CAVOK 18/11 Q1024
YPPH 220030Z 06011KT CAVOK 17/11 Q1024
YPPH 220000Z 06007KT 020V080 CAVOK 16/11 Q1024
YPPH 212330Z 06012KT CAVOK 16/11 Q1024
YPPH 212300Z 08014KT CAVOK 15/11 Q1023
YPPH 212230Z 07014KT CAVOK 15/11 Q1023
YPPH 212200Z 08014KT CAVOK 15/11 Q1023
YPPH 212130Z 07012KT CAVOK 15/11 Q1023
YPPH 212100Z 08014KT CAVOK 15/11 Q1023
YPPH 212030Z 09007KT 050V120 CAVOK 15/11 Q1022
YPPH 212000Z 09009KT CAVOK 15/11 Q1022
YPPH 211900Z 09011KT CAVOK 16/11 Q1023
YPPH 211830Z 08013KT CAVOK 16/10 Q1023
YPPH 211800Z 09010KT CAVOK 16/10 Q1023
YPPH 211730Z 08008KT CAVOK 16/09 Q1023
YPPH 211700Z 08008KT CAVOK 16/08 Q1023
YPPH 211630Z 11008KT CAVOK 15/07 Q1023
YPPH 211600Z 16008KT CAVOK 13/07 Q1023
YPPH 211530Z 09005KT CAVOK 12/07 Q1023
YPPH 211500Z 07003KT CAVOK 13/07 Q1024
YPPH 211430Z 13003KT CAVOK 14/08 Q1024
YPPH 211400Z 08003KT CAVOK 15/08 Q1024